createdAt,value
2023-04-24T00:02:48.345Z,83.72
2023-04-24T00:08:50.473Z,83.77
2023-04-24T00:14:52.561Z,83.61
2023-04-24T00:20:54.460Z,83.70
2023-04-24T00:26:56.395Z,83.24
2023-04-24T00:32:59.058Z,83.46
2023-04-24T00:39:00.991Z,83.36
2023-04-24T00:45:04.275Z,83.62
2023-04-24T00:51:06.295Z,83.91
2023-04-24T00:57:08.396Z,84.33
2023-04-24T01:03:12.137Z,84.39
2023-04-24T01:09:15.606Z,84.39
2023-04-24T01:15:17.545Z,84.32
2023-04-24T01:21:22.132Z,85.21
2023-04-24T01:27:24.043Z,84.11
2023-04-24T01:33:26.411Z,84.28
2023-04-24T01:39:29.581Z,84.18
2023-04-24T01:45:31.602Z,83.69
2023-04-24T01:51:33.567Z,83.97
2023-04-24T01:57:36.214Z,83.33
2023-04-24T02:03:38.214Z,83.75
2023-04-24T02:09:40.392Z,83.74
2023-04-24T02:15:42.464Z,84.68
2023-04-24T02:21:44.343Z,85.32
2023-04-24T02:27:46.238Z,85.89
2023-04-24T02:33:48.418Z,86.83
2023-04-24T02:39:50.400Z,87.02
2023-04-24T02:45:52.342Z,88.25
2023-04-24T02:51:54.260Z,90.13
2023-04-24T02:57:56.178Z,92.02
2023-04-24T03:03:58.189Z,93.15
2023-04-24T03:10:00.604Z,93.75
2023-04-24T03:16:02.895Z,94.07
2023-04-24T03:22:04.946Z,93.77
2023-04-24T03:28:06.854Z,93.61
2023-04-24T03:34:08.742Z,92.98
2023-04-24T03:40:10.923Z,93.92
2023-04-24T03:46:12.870Z,93.41
2023-04-24T03:52:14.788Z,93.90
2023-04-24T03:58:17.080Z,93.34
2023-04-24T04:04:19.045Z,93.34
2023-04-24T04:10:21.191Z,93.14
2023-04-24T04:16:23.561Z,92.43
2023-04-24T04:22:25.553Z,92.67
2023-04-24T04:28:27.502Z,92.25
2023-04-24T04:34:30.728Z,91.32
2023-04-24T04:40:32.802Z,90.67
2023-04-24T04:46:35.158Z,90.94
2023-04-24T04:52:37.153Z,90.00
2023-04-24T04:58:39.070Z,90.50
2023-04-24T05:04:41.216Z,90.92
2023-04-24T05:10:43.221Z,90.93
2023-04-24T05:16:45.337Z,90.68
2023-04-24T05:22:47.217Z,88.43
2023-04-24T05:28:49.177Z,88.64
2023-04-24T05:34:51.173Z,87.25
2023-04-24T05:40:53.106Z,86.84
2023-04-24T05:46:56.596Z,84.53
2023-04-24T05:53:03.040Z,84.04
2023-04-24T05:59:05.079Z,84.55
2023-04-24T06:05:07.493Z,82.88
2023-04-24T06:11:09.425Z,84.09
2023-04-24T06:17:11.344Z,83.80
2023-04-24T06:23:13.280Z,84.18
2023-04-24T06:29:15.224Z,82.33
2023-04-24T06:35:17.255Z,82.63
2023-04-24T06:41:19.434Z,81.51
2023-04-24T06:47:21.364Z,88.87
2023-04-24T06:53:23.704Z,90.90
2023-04-24T06:59:26.121Z,93.12
2023-04-24T07:05:29.221Z,92.83
2023-04-24T07:11:31.419Z,91.15
2023-04-24T07:17:33.434Z,84.84
2023-04-24T07:23:35.392Z,84.11
2023-04-24T07:29:37.345Z,83.43
2023-04-24T07:35:39.438Z,79.05
2023-04-24T07:41:41.456Z,76.48
2023-04-24T07:47:46.558Z,70.91
2023-04-24T07:53:48.590Z,69.77
2023-04-24T07:59:50.518Z,66.45
2023-04-24T08:05:52.551Z,64.85
2023-04-24T08:11:54.895Z,66.68
2023-04-24T08:17:58.943Z,66.64
2023-04-24T08:24:01.494Z,62.69
2023-04-24T08:30:05.253Z,61.98
2023-04-24T08:36:08.360Z,64.27
2023-04-24T08:42:12.405Z,63.97
2023-04-24T08:48:27.268Z,62.51
2023-04-24T08:54:34.861Z,63.22
2023-04-24T09:00:38.805Z,59.66
2023-04-24T09:06:41.462Z,61.47
2023-04-24T09:12:45.074Z,62.42
2023-04-24T09:18:47.100Z,63.72
2023-04-24T09:24:49.347Z,60.61
2023-04-24T09:31:23.051Z,63.06
2023-04-24T09:37:31.450Z,61.06
2023-04-24T09:43:34.310Z,61.96
2023-04-24T09:49:38.224Z,61.55
2023-04-24T09:55:45.787Z,64.00
2023-04-24T10:01:50.304Z,63.81
2023-04-24T10:07:52.742Z,64.91
2023-04-24T10:13:56.467Z,64.28
2023-04-24T10:20:01.047Z,63.63
2023-04-24T10:26:03.938Z,62.10
2023-04-24T10:32:08.436Z,60.04
2023-04-24T10:38:14.935Z,60.43
2023-04-24T10:44:17.682Z,59.74
2023-04-24T10:50:19.813Z,63.32
2023-04-24T10:56:23.144Z,63.85
2023-04-24T11:02:41.502Z,61.74
2023-04-24T11:08:49.179Z,59.62
2023-04-24T11:15:00.485Z,57.39
2023-04-24T11:21:17.925Z,60.67
2023-04-24T11:27:22.376Z,63.32
2023-04-24T11:33:24.331Z,61.91
2023-04-24T11:39:26.319Z,60.14
2023-04-24T11:45:32.079Z,58.81
2023-04-24T11:51:47.841Z,61.95
2023-04-24T11:58:01.049Z,67.03
2023-04-24T12:04:03.254Z,74.71
2023-04-24T12:10:07.011Z,82.01
2023-04-24T12:16:09.003Z,78.22
2023-04-24T12:22:11.003Z,68.56
2023-04-24T12:28:14.391Z,71.08
2023-04-24T12:34:21.614Z,77.83
2023-04-24T12:40:26.758Z,83.51
2023-04-24T12:46:28.679Z,83.53
2023-04-24T12:52:31.619Z,84.37
2023-04-24T12:58:33.504Z,82.26
2023-04-24T13:04:35.412Z,83.13
2023-04-24T13:10:37.380Z,82.00
2023-04-24T13:16:39.287Z,82.21
2023-04-24T13:22:41.217Z,81.85
2023-04-24T13:28:43.216Z,79.99
2023-04-24T13:34:45.129Z,82.22
2023-04-24T13:40:47.023Z,84.16
2023-04-24T13:46:52.768Z,89.67
2023-04-24T13:52:55.219Z,92.67
2023-04-24T13:58:57.672Z,88.33
2023-04-24T14:04:59.698Z,85.39
2023-04-24T14:11:04.035Z,84.54
2023-04-24T14:17:06.782Z,84.23
2023-04-24T14:23:08.748Z,84.15
2023-04-24T14:29:14.765Z,85.23
2023-04-24T14:35:17.388Z,85.72
2023-04-24T14:41:19.376Z,86.60
2023-04-24T14:47:22.737Z,85.91
2023-04-24T14:53:24.884Z,85.14
2023-04-24T14:59:26.837Z,81.13
2023-04-24T15:05:29.101Z,80.02
2023-04-24T15:11:31.176Z,81.44
2023-04-24T15:17:33.161Z,81.55
2023-04-24T15:23:35.075Z,82.09
2023-04-24T15:29:37.106Z,80.55
2023-04-24T15:35:39.081Z,81.31
2023-04-24T15:41:40.976Z,82.09
2023-04-24T15:47:42.949Z,81.73
2023-04-24T15:53:47.243Z,82.15
2023-04-24T15:59:49.581Z,82.20
2023-04-24T16:05:53.463Z,78.91
2023-04-24T16:11:55.596Z,76.19
2023-04-24T16:17:58.445Z,74.89
2023-04-24T16:24:00.457Z,75.90
2023-04-24T16:30:03.069Z,74.97
2023-04-24T16:36:07.356Z,75.17
2023-04-24T16:42:09.525Z,75.80
2023-04-24T16:48:11.504Z,76.01
2023-04-24T16:54:13.400Z,77.01
2023-04-24T17:00:16.416Z,77.20
2023-04-24T17:06:18.402Z,76.39
2023-04-24T17:12:20.386Z,75.33
2023-04-24T17:18:22.334Z,76.02
2023-04-24T17:24:24.559Z,76.82
2023-04-24T17:30:26.761Z,76.22
2023-04-24T17:36:28.698Z,75.33
2023-04-24T17:42:30.701Z,75.69
2023-04-24T17:48:32.642Z,76.39
2023-04-24T17:54:34.834Z,75.66
2023-04-24T18:00:37.359Z,75.23
2023-04-24T18:06:39.779Z,71.35
2023-04-24T18:12:41.753Z,74.14
2023-04-24T18:18:43.700Z,75.70
2023-04-24T18:24:45.679Z,77.63
2023-04-24T18:30:47.872Z,79.10
2023-04-24T18:36:49.773Z,80.26
2023-04-24T18:42:51.732Z,79.97
2023-04-24T18:48:53.680Z,80.52
2023-04-24T18:54:55.688Z,82.97
2023-04-24T19:00:57.912Z,83.29
2023-04-24T19:06:59.832Z,84.07
2023-04-24T19:13:01.915Z,83.11
2023-04-24T19:19:05.538Z,82.28
2023-04-24T19:25:08.696Z,81.75
2023-04-24T19:31:10.718Z,82.70
2023-04-24T19:37:13.319Z,82.02
2023-04-24T19:43:15.214Z,82.34
2023-04-24T19:49:17.266Z,83.34
2023-04-24T19:55:19.327Z,82.15
2023-04-24T20:01:21.487Z,82.34
2023-04-24T20:07:23.429Z,82.43
2023-04-24T20:13:28.144Z,82.83
2023-04-24T20:19:30.261Z,82.99
2023-04-24T20:25:32.214Z,82.00
2023-04-24T20:31:34.707Z,82.68
2023-04-24T20:37:36.867Z,83.10
2023-04-24T20:43:39.605Z,83.25
2023-04-24T20:49:41.640Z,82.96
2023-04-24T20:55:43.642Z,82.76
2023-04-24T21:01:45.632Z,83.45
2023-04-24T21:07:47.718Z,83.23
2023-04-24T21:13:49.841Z,83.22
2023-04-24T21:19:52.016Z,83.76
2023-04-24T21:25:53.925Z,82.72
2023-04-24T21:31:56.026Z,82.90
2023-04-24T21:37:57.932Z,83.96
2023-04-24T21:43:59.913Z,83.63
2023-04-24T21:50:01.967Z,83.87
2023-04-24T21:56:04.129Z,83.72
2023-04-24T22:02:06.273Z,84.00
2023-04-24T22:08:08.338Z,82.95
2023-04-24T22:14:10.997Z,83.21
2023-04-24T22:20:13.833Z,83.24
2023-04-24T22:26:15.804Z,83.08
2023-04-24T22:32:17.764Z,82.56
2023-04-24T22:38:19.675Z,82.35
2023-04-24T22:44:22.120Z,82.70
2023-04-24T22:50:25.459Z,83.34
2023-04-24T22:56:27.395Z,81.56
2023-04-24T23:02:29.441Z,82.41
2023-04-24T23:08:31.452Z,82.68
2023-04-24T23:14:34.309Z,82.43
2023-04-24T23:20:36.332Z,83.36
2023-04-24T23:26:38.378Z,82.92
2023-04-24T23:32:40.282Z,84.24
2023-04-24T23:38:49.637Z,84.71
2023-04-24T23:44:52.585Z,85.66
2023-04-24T23:50:54.576Z,85.47
2023-04-24T23:56:56.487Z,86.22
